Time;durP1;ratioP1;P1;durP2;ratioP2;P2;SDS_P1;SDS_P2;PMS_P1;PMS_P2;Temp;Humidity;BMP_temperature;BMP_pressure;BME280_temperature;BME280_humidity;BME280_pressure;Samples;Min_cycle;Max_cycle;Signal;HPM_P1;HPM_P2
2022/01/04 00:00:46;;;;;;;4.90;1.70;;;9.90;99.90;;;;;;4974939;28;20201;-81
2022/01/04 00:03:11;;;;;;;5.55;1.60;;;9.80;99.90;;;;;;4974998;28;20180;-78
2022/01/04 00:05:37;;;;;;;5.97;1.98;;;9.80;99.90;;;;;;4974965;28;20173;-78
2022/01/04 00:08:08;;;;;;;2.78;1.70;;;9.70;99.90;;;;;;4975009;28;20170;-79
2022/01/04 00:10:34;;;;;;;3.17;1.52;;;9.80;99.90;;;;;;4974620;28;20209;-78
2022/01/04 00:15:44;;;;;;;5.85;1.30;;;9.70;99.90;;;;;;4975218;28;20717;-79
2022/01/04 00:18:10;;;;;;;4.30;1.50;;;9.70;99.90;;;;;;4974708;28;20253;-78
2022/01/04 00:20:36;;;;;;;3.35;1.52;;;9.80;99.90;;;;;;4974682;28;20190;-79
2022/01/04 00:23:02;;;;;;;1.73;0.90;;;9.90;99.90;;;;;;4974829;28;20161;-78
2022/01/04 00:25:28;;;;;;;3.28;1.42;;;9.70;99.90;;;;;;4973640;28;20188;-78
2022/01/04 00:27:54;;;;;;;3.53;1.80;;;9.60;99.90;;;;;;4974637;28;20166;-79
2022/01/04 00:30:19;;;;;;;2.78;1.33;;;9.70;99.90;;;;;;4974279;28;20739;-80
2022/01/04 00:32:45;;;;;;;2.47;1.25;;;9.70;99.90;;;;;;4974454;28;20228;-79
2022/01/04 00:35:11;;;;;;;2.05;1.10;;;9.70;99.90;;;;;;4974417;28;20170;-79
2022/01/04 00:37:37;;;;;;;2.65;1.63;;;9.90;99.90;;;;;;4974112;28;20232;-79
2022/01/04 00:40:03;;;;;;;3.75;1.13;;;10.00;99.90;;;;;;4973913;28;20192;-78
2022/01/04 00:42:29;;;;;;;2.97;1.75;;;9.90;99.90;;;;;;4973745;28;20206;-79
2022/01/04 00:44:54;;;;;;;3.10;1.83;;;10.00;99.90;;;;;;4974147;28;20224;-79
2022/01/04 00:47:26;;;;;;;5.72;1.38;;;10.00;99.90;;;;;;4974302;28;20236;-78
2022/01/04 00:49:52;;;;;;;4.72;1.38;;;9.90;99.90;;;;;;4989311;28;20189;-79
2022/01/04 00:52:18;;;;;;;1.95;1.50;;;10.00;99.90;;;;;;4974031;28;20181;-80
2022/01/04 00:54:45;;;;;;;4.00;1.83;;;9.90;99.90;;;;;;4988901;28;20605;-78
2022/01/04 00:57:11;;;;;;;5.22;2.05;;;9.80;99.90;;;;;;4974275;28;20212;-79
2022/01/04 00:59:37;;;;;;;3.50;2.28;;;9.80;99.90;;;;;;4974156;28;20185;-78
2022/01/04 01:02:03;;;;;;;3.45;2.00;;;9.90;99.90;;;;;;4988493;28;20225;-78
2022/01/04 01:04:29;;;;;;;6.55;2.60;;;10.00;99.90;;;;;;4973530;28;20166;-78
2022/01/04 01:06:54;;;;;;;4.40;2.85;;;10.20;99.90;;;;;;4974066;28;20665;-78
2022/01/04 01:09:22;;;;;;;8.95;4.35;;;10.20;99.90;;;;;;4973952;28;20192;-79
2022/01/04 01:11:48;;;;;;;12.75;4.40;;;10.00;99.90;;;;;;4973873;28;20165;-79
2022/01/04 01:14:13;;;;;;;13.80;4.50;;;9.90;99.90;;;;;;4973979;28;20173;-78
2022/01/04 01:16:39;;;;;;;10.68;3.88;;;10.00;99.90;;;;;;4973858;28;20186;-79
2022/01/04 01:19:04;;;;;;;11.45;4.38;;;10.00;99.90;;;;;;4973705;28;20244;-78
2022/01/04 01:21:30;;;;;;;6.75;3.88;;;10.10;99.90;;;;;;4974145;28;20222;-79
2022/01/04 01:23:56;;;;;;;12.10;4.18;;;10.20;99.90;;;;;;4973768;28;20169;-80
2022/01/04 01:26:21;;;;;;;10.40;4.18;;;10.30;99.90;;;;;;4973643;28;20184;-79
2022/01/04 01:28:47;;;;;;;13.20;4.45;;;10.00;99.90;;;;;;4973845;28;20256;-78
2022/01/04 01:31:13;;;;;;;14.95;3.60;;;10.00;99.90;;;;;;4973834;28;20220;-79
2022/01/04 01:33:39;;;;;;;7.00;2.92;;;10.20;99.90;;;;;;4973764;28;20443;-79
2022/01/04 01:36:04;;;;;;;10.07;3.80;;;10.30;99.90;;;;;;4975155;28;20162;-83
2022/01/04 01:38:30;;;;;;;4.65;2.53;;;10.40;99.90;;;;;;4977444;28;20638;-79
2022/01/04 01:40:56;;;;;;;4.88;2.53;;;10.40;99.90;;;;;;4977750;28;20201;-78
2022/01/04 01:43:24;;;;;;;6.10;2.60;;;10.30;99.90;;;;;;4977766;28;20697;-78
2022/01/04 01:45:50;;;;;;;5.57;3.30;;;10.10;99.90;;;;;;4977668;28;20173;-78
2022/01/04 01:48:16;;;;;;;3.78;2.78;;;10.10;99.90;;;;;;4977702;28;20189;-79
2022/01/04 01:50:42;;;;;;;4.70;2.80;;;9.90;99.90;;;;;;4977924;28;20189;-83
2022/01/04 01:53:08;;;;;;;5.28;2.50;;;9.80;99.90;;;;;;4992637;28;20268;-82
2022/01/04 01:55:34;;;;;;;6.68;3.17;;;9.80;99.90;;;;;;4977460;28;20166;-78
2022/01/04 01:58:00;;;;;;;5.80;3.00;;;9.90;99.90;;;;;;4977426;28;20180;-79
2022/01/04 02:00:28;;;;;;;5.43;2.80;;;10.00;99.90;;;;;;4977341;28;20190;-79
2022/01/04 02:02:54;;;;;;;6.22;2.67;;;10.20;99.90;;;;;;4977317;28;20182;-79
2022/01/04 02:05:20;;;;;;;6.05;2.58;;;10.40;99.90;;;;;;4977411;28;20172;-81
2022/01/04 02:07:46;;;;;;;5.20;2.47;;;10.40;99.90;;;;;;4977224;28;20665;-78
2022/01/04 02:10:12;;;;;;;5.60;3.33;;;10.20;99.90;;;;;;4976943;28;20199;-79
2022/01/04 02:12:39;;;;;;;5.00;3.25;;;10.30;99.90;;;;;;4976836;28;20170;-82
2022/01/04 02:15:08;;;;;;;11.98;4.30;;;10.30;99.90;;;;;;4976748;28;20177;-78
2022/01/04 02:17:34;;;;;;;7.28;3.78;;;10.30;99.90;;;;;;4977361;28;20233;-79
2022/01/04 02:20:00;;;;;;;8.65;4.78;;;10.30;99.90;;;;;;4976968;28;20194;-82
2022/01/04 02:22:27;;;;;;;10.15;5.03;;;10.30;99.90;;;;;;4991593;28;20345;-79
2022/01/04 02:24:53;;;;;;;11.57;4.60;;;10.30;99.90;;;;;;4976901;28;20650;-78
2022/01/04 02:27:19;;;;;;;11.63;5.40;;;10.40;99.90;;;;;;4976865;28;20170;-79
2022/01/04 02:29:46;;;;;;;14.25;5.70;;;10.50;99.90;;;;;;4976895;28;20193;-82
2022/01/04 02:32:12;;;;;;;11.60;4.90;;;10.60;99.90;;;;;;4976982;28;20172;-83
2022/01/04 02:34:39;;;;;;;20.25;5.55;;;10.60;99.90;;;;;;4976810;28;20181;-78
2022/01/04 02:37:06;;;;;;;12.32;5.82;;;10.50;99.90;;;;;;4976688;28;20195;-79
2022/01/04 02:39:35;;;;;;;10.77;5.55;;;10.50;99.90;;;;;;4976277;28;20277;-78
2022/01/04 02:42:02;;;;;;;12.02;5.38;;;10.20;99.90;;;;;;4976290;28;20202;-78
2022/01/04 02:44:28;;;;;;;10.80;5.63;;;10.10;99.90;;;;;;4976547;28;20170;-82
2022/01/04 02:46:53;;;;;;;13.32;5.60;;;10.10;99.90;;;;;;4976285;28;20243;-83
2022/01/04 02:49:19;;;;;;;11.30;6.05;;;10.00;99.90;;;;;;4974836;28;20189;-78
2022/01/04 02:51:45;;;;;;;11.43;6.18;;;10.00;99.90;;;;;;4976151;28;20178;-79
2022/01/04 02:54:11;;;;;;;14.50;6.43;;;10.20;99.90;;;;;;4976263;28;20174;-78
2022/01/04 02:56:37;;;;;;;15.13;6.57;;;10.10;99.90;;;;;;4976136;28;20170;-78
2022/01/04 02:59:04;;;;;;;14.65;7.22;;;9.90;99.90;;;;;;4976095;28;20337;-79
2022/01/04 03:01:32;;;;;;;14.35;6.88;;;10.00;99.90;;;;;;4976112;28;20240;-79
2022/01/04 03:03:58;;;;;;;16.58;8.38;;;10.10;99.90;;;;;;4975868;28;20168;-79
2022/01/04 03:06:24;;;;;;;32.85;10.38;;;10.00;99.90;;;;;;4976072;28;20170;-78
2022/01/04 03:08:50;;;;;;;22.77;9.05;;;10.00;99.90;;;;;;4975983;28;20256;-78
2022/01/04 03:11:16;;;;;;;17.30;8.15;;;10.10;99.90;;;;;;4976121;28;20186;-79
2022/01/04 03:13:41;;;;;;;15.85;8.27;;;9.90;99.90;;;;;;4975858;28;20573;-78
2022/01/04 03:16:07;;;;;;;24.40;10.07;;;9.90;99.90;;;;;;4991061;28;20262;-78
2022/01/04 03:18:33;;;;;;;17.98;8.23;;;10.00;99.90;;;;;;4975999;28;20630;-83
2022/01/04 03:20:58;;;;;;;21.90;9.30;;;10.10;99.90;;;;;;4976026;28;20220;-78
2022/01/04 03:23:24;;;;;;;16.73;7.43;;;10.10;99.90;;;;;;4975648;28;20180;-78
2022/01/04 03:25:50;;;;;;;20.00;8.23;;;10.10;99.90;;;;;;4975792;28;20169;-78
2022/01/04 03:28:19;;;;;;;15.32;8.27;;;10.10;99.90;;;;;;4975848;28;20505;-78
2022/01/04 03:30:45;;;;;;;12.88;6.18;;;10.20;99.90;;;;;;4975821;28;20269;-83
2022/01/04 03:33:11;;;;;;;10.82;6.32;;;10.20;99.90;;;;;;4975706;28;20637;-79
2022/01/04 03:35:36;;;;;;;9.52;5.55;;;10.10;99.90;;;;;;4975376;28;20276;-78
2022/01/04 03:38:02;;;;;;;9.43;5.38;;;10.10;99.90;;;;;;4975699;28;20536;-79
2022/01/04 03:40:28;;;;;;;7.88;5.18;;;10.20;99.90;;;;;;4975195;28;20182;-80
2022/01/04 03:42:53;;;;;;;7.20;4.90;;;10.30;99.90;;;;;;4975680;28;20223;-78
2022/01/04 03:45:19;;;;;;;8.55;5.35;;;10.30;99.90;;;;;;4975605;28;20170;-79
2022/01/04 03:47:44;;;;;;;8.48;3.72;;;10.30;99.90;;;;;;4975022;28;20196;-78
2022/01/04 03:50:10;;;;;;;6.07;3.92;;;10.10;99.90;;;;;;4975050;28;20182;-78
2022/01/04 03:52:36;;;;;;;6.57;4.20;;;10.30;99.90;;;;;;4975523;28;20162;-79
2022/01/04 03:55:04;;;;;;;4.35;3.88;;;10.30;99.90;;;;;;4975390;28;20170;-78
2022/01/04 03:57:30;;;;;;;5.25;3.90;;;10.40;99.90;;;;;;4975243;28;20162;-83
2022/01/04 03:59:56;;;;;;;4.57;3.20;;;10.40;99.90;;;;;;4975251;28;20224;-80
2022/01/04 04:02:21;;;;;;;8.55;3.40;;;10.20;99.90;;;;;;4974557;28;20729;-78
2022/01/04 04:04:47;;;;;;;5.47;3.65;;;10.30;99.90;;;;;;4974484;28;20185;-78
2022/01/04 04:07:12;;;;;;;8.63;4.03;;;10.40;99.90;;;;;;4975018;28;20180;-79
2022/01/04 04:09:39;;;;;;;3.33;3.03;;;10.40;99.90;;;;;;4974665;28;20182;-78
2022/01/04 04:12:05;;;;;;;5.97;3.67;;;10.40;99.90;;;;;;4975080;28;20201;-79
2022/01/04 04:14:31;;;;;;;6.88;3.38;;;10.30;99.90;;;;;;4974767;28;20216;-78
2022/01/04 04:16:57;;;;;;;4.70;3.65;;;10.20;99.90;;;;;;4974994;28;20170;-79
2022/01/04 04:19:22;;;;;;;5.55;3.60;;;10.00;99.90;;;;;;4974888;28;20328;-79
2022/01/04 04:21:48;;;;;;;7.55;4.13;;;10.10;99.90;;;;;;4974589;28;20206;-81
2022/01/04 04:24:13;;;;;;;8.55;4.65;;;10.30;99.90;;;;;;4989555;28;20177;-83
2022/01/04 04:26:39;;;;;;;5.43;4.70;;;10.30;99.90;;;;;;4989757;28;20201;-78
2022/01/04 04:29:05;;;;;;;11.80;4.78;;;10.10;99.90;;;;;;4974456;28;20563;-79
2022/01/04 04:31:30;;;;;;;7.20;4.32;;;10.20;99.90;;;;;;4974490;28;20514;-79
2022/01/04 04:33:56;;;;;;;7.55;4.00;;;10.20;99.90;;;;;;4974762;28;20257;-79
2022/01/04 04:36:21;;;;;;;7.97;4.50;;;10.10;99.90;;;;;;4974714;28;20661;-78
2022/01/04 04:38:47;;;;;;;8.15;5.03;;;10.20;99.90;;;;;;4974526;28;20186;-79
2022/01/04 04:41:12;;;;;;;9.23;4.97;;;10.30;99.90;;;;;;4974310;28;20225;-78
2022/01/04 04:43:38;;;;;;;7.00;4.07;;;10.30;99.90;;;;;;4974227;28;20669;-78
2022/01/04 04:46:04;;;;;;;8.88;4.75;;;10.30;99.90;;;;;;4989250;28;20257;-78
2022/01/04 04:48:29;;;;;;;7.72;4.97;;;10.00;99.90;;;;;;4974068;28;20194;-81
2022/01/04 04:50:55;;;;;;;7.70;4.85;;;10.10;99.90;;;;;;4974450;28;20169;-79
2022/01/04 04:53:20;;;;;;;8.90;4.63;;;10.10;99.90;;;;;;4974177;28;20197;-79
2022/01/04 04:55:46;;;;;;;12.55;5.47;;;10.10;99.90;;;;;;4973962;28;20170;-79
2022/01/04 04:58:12;;;;;;;9.85;5.28;;;10.10;99.90;;;;;;4974215;28;20237;-78
2022/01/04 05:00:38;;;;;;;10.20;5.60;;;10.20;99.90;;;;;;4973926;28;20277;-79
2022/01/04 05:03:04;;;;;;;11.95;5.57;;;10.00;99.90;;;;;;4974318;28;20193;-79
2022/01/04 05:05:30;;;;;;;9.43;5.80;;;9.90;99.90;;;;;;4973948;28;20166;-79
2022/01/04 05:07:55;;;;;;;9.70;4.90;;;10.10;99.90;;;;;;4973660;28;20185;-78
2022/01/04 05:10:21;;;;;;;8.32;4.78;;;10.10;99.90;;;;;;4973020;28;20192;-79
2022/01/04 05:12:47;;;;;;;6.60;5.40;;;10.20;99.90;;;;;;4973664;28;20256;-79
2022/01/04 05:15:12;;;;;;;7.57;4.75;;;10.10;99.90;;;;;;4973632;28;20189;-79
2022/01/04 05:17:38;;;;;;;10.13;5.63;;;10.20;99.90;;;;;;4973461;28;20581;-79
2022/01/04 05:20:05;;;;;;;7.40;5.65;;;10.00;99.90;;;;;;4973566;28;20193;-80
2022/01/04 05:22:30;;;;;;;7.60;5.60;;;10.00;99.90;;;;;;4973714;28;20686;-79
2022/01/04 05:24:56;;;;;;;7.32;5.20;;;10.00;99.90;;;;;;4973473;28;20216;-79
2022/01/04 05:27:21;;;;;;;6.63;5.45;;;10.00;99.90;;;;;;4973803;28;20535;-79
2022/01/04 05:29:47;;;;;;;12.02;5.80;;;9.90;99.90;;;;;;4973417;28;20186;-79
2022/01/04 05:32:13;;;;;;;10.18;5.18;;;10.00;99.90;;;;;;4973522;28;20194;-78
2022/01/04 05:34:38;;;;;;;11.48;5.95;;;10.00;99.90;;;;;;4973599;28;20663;-79
2022/01/04 05:37:04;;;;;;;5.53;4.88;;;9.90;99.90;;;;;;4973301;28;20184;-78
2022/01/04 05:39:30;;;;;;;15.18;5.90;;;9.70;99.90;;;;;;4973405;28;20221;-78
2022/01/04 05:41:56;;;;;;;8.70;5.68;;;9.70;99.90;;;;;;4972274;28;20221;-80
2022/01/04 05:44:21;;;;;;;8.73;6.03;;;9.80;99.90;;;;;;4973247;28;20641;-78
2022/01/04 05:46:47;;;;;;;7.40;5.15;;;10.00;99.90;;;;;;4973461;28;20240;-79
2022/01/04 05:49:12;;;;;;;6.45;4.88;;;10.00;99.90;;;;;;4973326;28;20230;-82
2022/01/04 05:51:38;;;;;;;8.43;4.57;;;9.70;99.90;;;;;;4973535;28;20162;-78
2022/01/04 05:54:04;;;;;;;6.05;5.03;;;9.80;99.90;;;;;;4973704;28;20567;-78
2022/01/04 05:56:30;;;;;;;5.47;4.45;;;10.00;99.90;;;;;;4973048;28;20166;-78
2022/01/04 05:58:55;;;;;;;6.05;4.90;;;10.10;99.90;;;;;;4972904;28;20190;-78
2022/01/04 06:01:21;;;;;;;10.75;5.43;;;10.20;99.90;;;;;;4973280;28;20217;-78
2022/01/04 06:03:47;;;;;;;6.40;3.97;;;10.00;99.90;;;;;;4973309;28;20642;-79
2022/01/04 06:06:13;;;;;;;10.65;4.75;;;10.00;99.90;;;;;;4973330;28;20248;-78
2022/01/04 06:08:38;;;;;;;10.88;5.20;;;10.00;99.90;;;;;;4972840;28;20166;-78
2022/01/04 06:11:06;;;;;;;7.53;4.25;;;10.20;99.90;;;;;;4972912;28;20689;-78
2022/01/04 06:16:16;;;;;;;7.07;4.68;;;10.20;99.90;;;;;;4973108;28;20213;-79
2022/01/04 06:18:42;;;;;;;9.82;4.68;;;10.20;99.90;;;;;;4972807;28;20181;-78
2022/01/04 06:21:09;;;;;;;6.90;4.30;;;10.30;99.90;;;;;;4972792;28;20206;-78
2022/01/04 06:23:34;;;;;;;5.72;3.97;;;10.00;99.90;;;;;;4974994;28;20579;-78
2022/01/04 06:26:00;;;;;;;5.78;4.55;;;10.00;99.90;;;;;;4976322;28;20192;-79
2022/01/04 06:28:26;;;;;;;7.38;4.45;;;10.00;99.90;;;;;;4991378;28;20538;-79
2022/01/04 06:30:52;;;;;;;4.88;4.30;;;10.00;99.90;;;;;;4976409;28;20189;-77
2022/01/04 06:33:23;;;;;;;5.90;4.40;;;10.10;99.90;;;;;;4976692;28;20541;-78
2022/01/04 06:35:49;;;;;;;6.70;3.85;;;10.30;99.90;;;;;;4976528;28;20590;-77
2022/01/04 06:38:15;;;;;;;12.02;4.50;;;10.40;99.90;;;;;;4976376;28;20170;-78
2022/01/04 06:40:41;;;;;;;13.18;9.05;;;10.40;99.90;;;;;;4975930;28;20272;-79
2022/01/04 06:43:07;;;;;;;6.13;3.97;;;10.40;99.90;;;;;;4976327;28;20682;-78
2022/01/04 06:45:34;;;;;;;7.88;4.00;;;10.50;99.90;;;;;;4976245;28;20669;-78
2022/01/04 06:47:59;;;;;;;7.53;4.18;;;10.30;99.90;;;;;;4976086;28;20190;-78
2022/01/04 06:50:25;;;;;;;3.95;3.25;;;10.20;99.90;;;;;;4976507;28;20229;-77
2022/01/04 06:52:51;;;;;;;4.60;4.07;;;10.10;99.90;;;;;;4976380;28;20538;-82
2022/01/04 06:55:16;;;;;;;6.07;4.45;;;10.10;99.90;;;;;;4976153;28;20174;-88
2022/01/04 06:57:43;;;;;;;5.93;4.20;;;10.00;99.90;;;;;;4976598;28;20166;-79
2022/01/04 07:00:09;;;;;;;5.95;4.45;;;10.20;99.90;;;;;;4975948;28;20709;-77
2022/01/04 07:02:35;;;;;;;3.78;3.38;;;10.40;99.90;;;;;;4975050;28;20213;-78
2022/01/04 07:05:02;;;;;;;5.80;5.03;;;10.30;99.90;;;;;;4974044;28;20174;-78
2022/01/04 07:07:28;;;;;;;5.40;4.88;;;10.30;99.90;;;;;;4975383;28;20166;-78
2022/01/04 07:09:54;;;;;;;11.13;4.60;;;10.30;99.90;;;;;;4975404;28;20186;-82
2022/01/04 07:12:20;;;;;;;6.85;4.95;;;10.20;99.90;;;;;;4975974;28;20208;-79
2022/01/04 07:14:45;;;;;;;4.30;3.75;;;10.10;99.90;;;;;;4976306;28;20206;-78
2022/01/04 07:17:11;;;;;;;6.28;5.00;;;10.10;99.90;;;;;;4975159;28;20174;-78
2022/01/04 07:19:39;;;;;;;4.80;4.40;;;10.30;99.90;;;;;;4974842;28;20540;-79
2022/01/04 07:22:04;;;;;;;4.90;4.50;;;10.30;99.90;;;;;;4975462;28;20209;-78
2022/01/04 07:24:30;;;;;;;6.32;5.60;;;10.20;99.90;;;;;;4974959;28;20526;-78
2022/01/04 07:26:55;;;;;;;6.43;5.00;;;10.40;99.90;;;;;;4975862;28;20535;-77
2022/01/04 07:29:21;;;;;;;6.03;5.30;;;10.30;99.90;;;;;;4975805;28;20553;-78
2022/01/04 07:31:47;;;;;;;5.75;5.00;;;10.20;99.90;;;;;;4975693;28;20584;-78
2022/01/04 07:34:12;;;;;;;9.70;5.10;;;10.20;99.90;;;;;;4975071;28;20169;-78
2022/01/04 07:36:38;;;;;;;5.72;5.22;;;10.20;99.90;;;;;;4975495;28;20615;-77
2022/01/04 07:39:04;;;;;;;6.18;5.22;;;10.20;99.90;;;;;;4975481;28;20182;-81
2022/01/04 07:41:29;;;;;;;8.40;5.10;;;9.90;99.90;;;;;;4974514;28;20206;-78
2022/01/04 07:43:55;;;;;;;5.93;5.32;;;9.80;99.90;;;;;;4974978;28;20185;-78
2022/01/04 07:46:21;;;;;;;5.78;5.20;;;9.80;99.90;;;;;;4973674;28;20182;-79
2022/01/04 07:48:49;;;;;;;7.07;6.00;;;9.80;99.90;;;;;;4975339;28;20194;-78
2022/01/04 07:51:14;;;;;;;12.02;5.65;;;9.80;99.90;;;;;;4975638;28;20170;-82
2022/01/04 07:53:40;;;;;;;7.15;5.70;;;9.80;99.90;;;;;;4975491;28;20658;-79
2022/01/04 07:56:05;;;;;;;7.47;5.68;;;9.80;99.90;;;;;;4974995;28;20197;-78
2022/01/04 07:58:31;;;;;;;9.55;5.00;;;9.90;99.90;;;;;;4974801;28;20627;-78
2022/01/04 08:00:57;;;;;;;7.68;5.82;;;10.00;99.90;;;;;;4974588;28;20174;-78
2022/01/04 08:03:23;;;;;;;9.35;5.95;;;9.80;99.90;;;;;;4974737;28;20224;-79
2022/01/04 08:05:49;;;;;;;7.90;6.70;;;9.80;99.90;;;;;;4974390;28;20649;-78
2022/01/04 08:08:15;;;;;;;6.65;6.03;;;9.90;99.90;;;;;;4974918;28;20701;-78
2022/01/04 08:10:41;;;;;;;8.98;6.45;;;9.80;99.90;;;;;;4974336;28;20201;-81
2022/01/04 08:13:07;;;;;;;11.45;6.18;;;9.80;99.90;;;;;;4975416;28;20174;-79
2022/01/04 08:15:32;;;;;;;11.20;6.55;;;10.00;99.90;;;;;;4974927;28;20178;-79
2022/01/04 08:17:58;;;;;;;10.52;6.72;;;10.00;99.90;;;;;;4974792;28;20236;-79
2022/01/04 08:20:24;;;;;;;9.32;7.63;;;10.10;99.90;;;;;;4974701;28;20273;-83
2022/01/04 08:22:50;;;;;;;11.70;8.98;;;10.10;99.90;;;;;;4974257;28;20220;-78
2022/01/04 08:25:15;;;;;;;11.70;8.40;;;9.80;99.90;;;;;;4974557;28;20574;-84
2022/01/04 08:27:41;;;;;;;13.55;8.38;;;9.80;99.90;;;;;;4974733;28;20225;-80
2022/01/04 08:30:10;;;;;;;10.35;7.38;;;9.70;99.90;;;;;;4974553;28;20189;-79
2022/01/04 08:32:37;;;;;;;14.98;8.68;;;9.70;99.90;;;;;;4974674;28;20166;-83
2022/01/04 08:35:04;;;;;;;9.52;7.22;;;9.80;99.90;;;;;;4974702;28;20197;-79
2022/01/04 08:37:30;;;;;;;9.40;6.40;;;9.70;99.90;;;;;;4974374;28;20162;-79
2022/01/04 08:39:56;;;;;;;8.25;7.45;;;9.70;99.90;;;;;;4974190;28;20654;-80
2022/01/04 08:42:22;;;;;;;17.05;6.68;;;9.70;99.90;;;;;;4974201;28;20209;-78
2022/01/04 08:44:49;;;;;;;11.98;6.65;;;9.80;99.90;;;;;;4974295;28;20174;-79
2022/01/04 08:47:14;;;;;;;18.35;7.57;;;9.90;99.90;;;;;;4973921;28;20181;-78
2022/01/04 08:49:40;;;;;;;13.35;6.75;;;9.90;99.90;;;;;;4974177;28;20297;-79
2022/01/04 08:52:07;;;;;;;12.05;7.50;;;9.90;99.90;;;;;;4973917;28;20630;-79
2022/01/04 08:54:34;;;;;;;14.05;7.57;;;9.90;99.90;;;;;;4973983;28;20177;-79
2022/01/04 08:57:00;;;;;;;12.50;8.45;;;9.80;99.90;;;;;;4974159;28;20256;-79
2022/01/04 08:59:27;;;;;;;10.60;7.90;;;9.90;99.90;;;;;;4973855;28;20285;-83
2022/01/04 09:01:53;;;;;;;10.48;6.95;;;9.90;99.90;;;;;;4988499;28;20308;-79
2022/01/04 09:04:19;;;;;;;15.57;7.57;;;10.00;99.90;;;;;;4973937;28;20248;-78
2022/01/04 09:06:44;;;;;;;12.23;7.93;;;10.00;99.90;;;;;;4973465;28;20174;-82
2022/01/04 09:09:10;;;;;;;9.70;6.97;;;10.00;99.90;;;;;;4973405;28;20252;-79
2022/01/04 09:11:35;;;;;;;10.40;6.45;;;10.10;99.90;;;;;;4973337;28;20170;-78
2022/01/04 09:19:25;;;;;;;12.35;7.95;;;10.10;99.90;;;;;;4973322;28;20277;-79
2022/01/04 09:21:51;;;;;;;8.27;6.60;;;9.90;99.90;;;;;;4973244;28;20303;-81
2022/01/04 09:24:17;;;;;;;10.70;8.35;;;10.00;99.90;;;;;;4973218;28;20631;-80
2022/01/04 09:26:43;;;;;;;9.07;7.18;;;10.10;99.90;;;;;;4973246;28;20284;-79
2022/01/04 09:29:09;;;;;;;10.95;8.25;;;10.00;99.90;;;;;;4973601;28;20719;-80
2022/01/04 09:31:35;;;;;;;8.20;7.35;;;10.20;99.90;;;;;;4973066;28;20170;-80
2022/01/04 09:34:02;;;;;;;9.73;7.10;;;10.10;99.90;;;;;;4973169;28;20181;-78
2022/01/04 09:36:30;;;;;;;13.75;8.35;;;10.20;99.90;;;;;;4973357;28;20162;-78
2022/01/04 09:38:57;;;;;;;9.77;6.80;;;10.10;99.90;;;;;;4972974;28;20197;-77
2022/01/04 09:41:23;;;;;;;10.27;8.30;;;10.10;99.90;;;;;;4973078;28;20197;-78
2022/01/04 09:43:49;;;;;;;9.13;8.13;;;10.10;99.90;;;;;;4972951;28;20189;-78
2022/01/04 09:46:15;;;;;;;11.90;8.05;;;10.20;99.90;;;;;;4973150;28;20170;-81
2022/01/04 09:48:41;;;;;;;9.23;8.25;;;10.30;99.90;;;;;;4972967;28;20592;-80
2022/01/04 09:51:10;;;;;;;13.40;8.77;;;10.20;99.90;;;;;;4988482;28;20161;-81
2022/01/04 09:53:35;;;;;;;8.45;7.57;;;10.10;99.90;;;;;;4973513;28;20654;-78
2022/01/04 09:56:02;;;;;;;11.52;8.10;;;10.20;99.90;;;;;;4972863;28;20189;-78
2022/01/04 09:58:28;;;;;;;15.00;8.35;;;10.20;99.90;;;;;;4976402;28;20710;-82
2022/01/04 10:00:54;;;;;;;17.23;8.35;;;10.20;99.90;;;;;;4976915;28;20169;-79
2022/01/04 10:03:30;;;;;;;9.57;7.80;;;10.30;99.90;;;;;;4977493;28;20174;-78
2022/01/04 10:06:05;;;;;;;9.82;7.80;;;10.40;99.90;;;;;;4976646;28;20527;-82
2022/01/04 10:08:31;;;;;;;18.80;9.55;;;10.40;99.90;;;;;;4976716;28;20180;-80
2022/01/04 10:11:08;;;;;;;10.18;8.40;;;10.30;99.90;;;;;;4976394;28;20243;-79
2022/01/04 10:13:34;;;;;;;9.57;7.70;;;10.30;99.90;;;;;;4977010;28;20174;-80
2022/01/04 10:16:00;;;;;;;9.15;7.38;;;10.30;99.90;;;;;;4976671;28;20196;-80
2022/01/04 10:18:28;;;;;;;16.08;8.23;;;10.30;99.90;;;;;;4976758;28;20261;-80
2022/01/04 10:21:02;;;;;;;12.23;7.53;;;10.40;99.90;;;;;;4977027;28;20237;-79
2022/01/04 10:23:27;;;;;;;9.52;7.25;;;10.30;99.90;;;;;;4977189;28;20172;-79
2022/01/04 10:26:02;;;;;;;9.48;7.38;;;10.30;99.90;;;;;;4976697;28;20252;-81
2022/01/04 10:28:30;;;;;;;14.02;6.63;;;10.40;99.90;;;;;;4976789;28;20169;-81
2022/01/04 10:31:00;;;;;;;10.45;7.32;;;10.30;99.90;;;;;;4976670;28;20202;-79
2022/01/04 10:33:27;;;;;;;5.88;5.28;;;10.30;99.90;;;;;;4976446;28;20202;-80
2022/01/04 10:35:55;;;;;;;6.85;6.15;;;10.30;99.90;;;;;;4976567;28;20172;-81
2022/01/04 10:38:27;;;;;;;12.02;6.00;;;10.40;99.90;;;;;;4976889;28;20177;-79
2022/01/04 10:41:11;;;;;;;8.18;5.53;;;10.40;99.90;;;;;;4976035;28;20166;-79
2022/01/04 10:43:40;;;;;;;7.63;6.32;;;10.30;99.90;;;;;;4976017;28;20166;-79
2022/01/04 10:46:07;;;;;;;9.52;5.50;;;10.40;99.90;;;;;;4976474;28;20193;-79
2022/01/04 10:48:36;;;;;;;6.07;4.82;;;10.30;99.90;;;;;;4976140;28;20265;-79
2022/01/04 10:51:31;;;;;;;13.18;5.78;;;10.20;99.90;;;;;;4976378;28;20165;-79
2022/01/04 10:54:00;;;;;;;7.13;4.88;;;10.30;99.90;;;;;;4975503;28;20248;-80
2022/01/04 10:56:32;;;;;;;5.70;4.80;;;10.40;99.90;;;;;;4991072;28;20221;-78
2022/01/04 10:59:01;;;;;;;9.43;5.10;;;10.40;99.90;;;;;;4975868;28;20190;-79
2022/01/04 11:01:30;;;;;;;7.07;4.75;;;10.40;99.90;;;;;;4976107;28;20264;-79
2022/01/04 11:04:00;;;;;;;4.95;4.40;;;10.40;99.90;;;;;;4976385;28;20200;-79
2022/01/04 11:06:36;;;;;;;4.85;4.30;;;10.50;99.90;;;;;;4976410;28;20197;-80
2022/01/04 11:09:04;;;;;;;6.45;4.68;;;10.30;99.90;;;;;;4975403;28;20217;-82
2022/01/04 11:11:30;;;;;;;5.40;4.90;;;10.40;99.90;;;;;;4991282;28;20623;-79
2022/01/04 11:13:55;;;;;;;4.43;4.03;;;10.70;99.90;;;;;;4975891;28;20193;-80
2022/01/04 11:16:23;;;;;;;6.90;5.00;;;10.80;99.90;;;;;;4976347;28;20216;-79
2022/01/04 11:18:52;;;;;;;5.80;5.15;;;10.80;99.90;;;;;;5003432;28;20233;-79
2022/01/04 11:21:41;;;;;;;6.35;5.75;;;10.60;99.90;;;;;;4985079;28;20205;-80
2022/01/04 11:24:10;;;;;;;8.10;4.78;;;10.50;99.90;;;;;;4990670;28;20264;-78
2022/01/04 11:26:39;;;;;;;5.78;4.70;;;10.50;99.90;;;;;;4975811;28;20245;-79
2022/01/04 11:29:05;;;;;;;6.13;5.53;;;10.50;99.90;;;;;;4976032;28;20205;-79
2022/01/04 11:31:52;;;;;;;6.53;5.40;;;10.50;99.90;;;;;;4975741;28;20194;-79
2022/01/04 11:34:37;;;;;;;6.00;5.47;;;10.30;99.90;;;;;;4975897;28;20221;-78
2022/01/04 11:37:03;;;;;;;6.43;5.88;;;10.30;99.90;;;;;;4974690;28;20185;-78
2022/01/04 11:39:38;;;;;;;8.23;6.00;;;10.40;99.90;;;;;;4975661;28;20257;-78
2022/01/04 11:42:07;;;;;;;6.53;5.80;;;10.40;99.90;;;;;;4975547;28;20744;-78
2022/01/04 11:44:35;;;;;;;5.93;5.22;;;10.40;99.90;;;;;;4975646;28;20181;-78
2022/01/04 11:47:03;;;;;;;6.30;5.70;;;10.40;99.90;;;;;;4975229;28;20275;-78
2022/01/04 11:49:29;;;;;;;6.13;5.43;;;10.30;99.90;;;;;;4975371;28;20332;-78
2022/01/04 11:51:55;;;;;;;9.65;6.15;;;10.40;99.90;;;;;;4975306;28;20257;-78
2022/01/04 11:54:23;;;;;;;5.93;5.32;;;10.40;99.90;;;;;;4974987;28;20471;-78
2022/01/04 11:57:04;;;;;;;7.07;6.10;;;10.30;99.90;;;;;;4974938;28;20170;-78
2022/01/04 11:59:43;;;;;;;8.55;5.40;;;10.40;99.90;;;;;;4975366;28;20189;-79
2022/01/04 12:02:31;;;;;;;8.18;5.43;;;10.30;99.90;;;;;;4974865;28;20205;-79
2022/01/04 12:04:59;;;;;;;6.18;5.13;;;10.50;99.90;;;;;;4974887;28;20310;-79
2022/01/04 12:07:45;;;;;;;6.38;5.13;;;10.50;99.90;;;;;;4974861;28;20533;-80
2022/01/04 12:10:22;;;;;;;5.78;5.05;;;10.70;99.90;;;;;;4974875;28;20190;-77
2022/01/04 12:13:00;;;;;;;8.82;5.15;;;10.60;99.90;;;;;;4973483;28;20181;-77
2022/01/04 12:15:34;;;;;;;6.85;5.32;;;10.60;99.90;;;;;;4974613;28;20170;-78
2022/01/04 12:18:07;;;;;;;6.35;5.75;;;10.70;99.90;;;;;;4974961;28;20173;-79
2022/01/04 12:20:42;;;;;;;7.43;5.00;;;10.70;99.90;;;;;;4973796;28;20204;-79
2022/01/04 12:23:23;;;;;;;6.60;5.25;;;10.70;99.90;;;;;;4973172;28;20213;-78
2022/01/04 12:26:04;;;;;;;5.68;5.10;;;10.90;99.90;;;;;;4974251;28;20578;-78
2022/01/04 12:28:33;;;;;;;5.38;4.90;;;11.00;99.90;;;;;;4974644;28;20170;-78
2022/01/04 12:31:20;;;;;;;8.07;4.82;;;11.00;99.90;;;;;;4974499;28;20257;-78
2022/01/04 12:33:50;;;;;;;7.05;5.25;;;10.80;99.90;;;;;;4974349;28;20166;-78
2022/01/04 12:36:27;;;;;;;6.00;5.25;;;10.60;99.90;;;;;;4974427;28;20178;-80
2022/01/04 12:38:55;;;;;;;6.07;5.47;;;10.70;99.90;;;;;;4974573;28;20196;-78
2022/01/04 12:41:21;;;;;;;7.10;5.63;;;10.80;99.90;;;;;;4974131;28;20198;-79
2022/01/04 12:43:49;;;;;;;7.97;5.70;;;10.60;99.90;;;;;;4974246;28;20170;-79
2022/01/04 12:46:27;;;;;;;8.23;5.30;;;10.60;99.90;;;;;;4989188;28;20619;-79
2022/01/04 12:48:56;;;;;;;7.20;6.05;;;10.60;99.90;;;;;;4974210;28;20637;-78
2022/01/04 12:51:29;;;;;;;6.32;5.72;;;10.70;99.90;;;;;;4989118;28;20643;-78
2022/01/04 12:53:58;;;;;;;8.52;5.88;;;10.60;99.90;;;;;;4974196;28;20162;-79
2022/01/04 12:56:24;;;;;;;6.63;5.93;;;10.50;99.90;;;;;;4973957;28;20277;-78